createdAt,value
2022-10-19T00:03:10.237Z,102239.97
2022-10-19T00:08:12.972Z,102238.84
2022-10-19T00:13:15.692Z,102253.63
2022-10-19T00:18:19.783Z,102247.56
2022-10-19T00:23:22.897Z,102255.34
2022-10-19T00:28:25.906Z,102263.84
2022-10-19T00:33:30.063Z,102262.72
2022-10-19T00:38:33.294Z,102258.03
2022-10-19T00:43:52.834Z,102261.47
2022-10-19T00:49:01.411Z,102241.28
2022-10-19T00:54:07.048Z,102247.38
2022-10-19T00:59:11.459Z,102247.75
2022-10-19T01:04:16.301Z,102250.75
2022-10-19T01:09:19.128Z,102254.75
2022-10-19T01:14:36.077Z,102249.38
2022-10-19T01:20:29.604Z,102254.09
2022-10-19T01:25:48.142Z,102254.66
2022-10-19T01:30:58.126Z,102250.91
2022-10-19T01:36:07.741Z,102254.69
2022-10-19T01:41:17.527Z,102259.84
2022-10-19T01:46:27.277Z,102261.56
2022-10-19T01:51:33.813Z,102251.16
2022-10-19T01:56:38.778Z,102263.59
2022-10-19T02:01:47.235Z,102266.81
2022-10-19T02:06:52.013Z,102257.28
2022-10-19T02:11:58.270Z,102253.19
2022-10-19T02:17:06.969Z,102249.03
2022-10-19T02:22:10.725Z,102260.63
2022-10-19T02:27:13.866Z,102254.72
2022-10-19T02:32:18.148Z,102248.75
2022-10-19T02:37:23.356Z,102256.88
2022-10-19T02:42:34.729Z,102260.56
2022-10-19T02:47:44.236Z,102258.94
2022-10-19T02:52:47.013Z,102261.59
2022-10-19T02:57:49.741Z,102266.06
2022-10-19T03:02:53.830Z,102261.78
2022-10-19T03:07:56.552Z,102261.00
2022-10-19T03:12:59.335Z,102266.97
2022-10-19T03:18:03.403Z,102272.22
2022-10-19T03:23:06.127Z,102279.47
2022-10-19T03:28:08.877Z,102285.88
2022-10-19T03:33:13.043Z,102288.72
2022-10-19T03:38:15.986Z,102284.38
2022-10-19T03:43:18.716Z,102286.00
2022-10-19T03:48:22.790Z,102293.91
2022-10-19T03:53:25.517Z,102293.28
2022-10-19T03:58:28.209Z,102300.41
2022-10-19T04:03:32.470Z,102308.09
2022-10-19T04:08:35.909Z,102313.47
2022-10-19T04:13:38.650Z,102317.00
2022-10-19T04:18:42.796Z,102322.28
2022-10-19T04:23:45.510Z,102329.19
2022-10-19T04:28:48.414Z,102334.25
2022-10-19T04:33:52.560Z,102344.56
2022-10-19T04:38:55.327Z,102350.31
2022-10-19T04:43:59.953Z,102357.06
2022-10-19T04:49:06.691Z,102349.41
2022-10-19T04:54:09.573Z,102354.22
2022-10-19T04:59:12.284Z,102359.63
2022-10-19T05:04:16.370Z,102356.75
2022-10-19T05:09:19.073Z,102362.81
2022-10-19T05:14:21.989Z,102362.03
2022-10-19T05:19:26.338Z,102368.88
2022-10-19T05:24:29.059Z,102364.44
2022-10-19T05:29:33.819Z,102363.41
2022-10-19T05:34:37.934Z,102377.34
2022-10-19T05:39:40.759Z,102377.97
2022-10-19T05:44:43.463Z,102383.91
2022-10-19T05:49:48.524Z,102390.41
2022-10-19T05:54:51.242Z,102397.13
2022-10-19T05:59:56.707Z,102419.00
2022-10-19T06:05:00.790Z,102426.63
2022-10-19T06:10:03.531Z,102438.22
2022-10-19T06:15:06.734Z,102446.34
2022-10-19T06:20:11.690Z,102442.69
2022-10-19T06:25:17.997Z,102441.88
2022-10-19T06:30:23.068Z,102442.59
2022-10-19T06:35:27.187Z,102462.16
2022-10-19T06:40:29.961Z,102460.53
2022-10-19T06:45:35.914Z,102467.44
2022-10-19T06:50:40.241Z,102477.53
2022-10-19T06:55:42.938Z,102476.84
2022-10-19T07:00:45.884Z,102487.50
2022-10-19T07:05:55.758Z,102494.09
2022-10-19T07:11:00.294Z,102490.34
2022-10-19T07:16:07.416Z,102481.38
2022-10-19T07:21:13.674Z,102496.50
2022-10-19T07:26:17.887Z,102499.72
2022-10-19T07:31:24.838Z,102503.44
2022-10-19T07:36:30.453Z,102508.31
2022-10-19T07:41:34.654Z,102499.41
2022-10-19T07:46:38.597Z,102513.41
2022-10-19T07:51:43.120Z,102512.03
2022-10-19T07:56:45.883Z,102506.53
2022-10-19T08:01:48.978Z,102514.56
2022-10-19T08:06:53.125Z,102515.47
2022-10-19T08:11:55.803Z,102514.78
2022-10-19T08:16:58.822Z,102521.41
2022-10-19T08:22:02.925Z,102525.91
2022-10-19T08:27:06.004Z,102522.34
2022-10-19T08:32:08.832Z,102530.22
2022-10-19T08:37:25.944Z,102528.38
2022-10-19T08:42:50.480Z,102529.75
2022-10-19T08:48:21.043Z,102545.94
2022-10-19T08:53:33.522Z,102545.09
2022-10-19T08:58:49.836Z,102552.19
2022-10-19T09:04:00.264Z,102550.84
2022-10-19T09:09:06.428Z,102545.03
2022-10-19T09:14:17.891Z,102543.53
2022-10-19T09:19:25.911Z,102552.09
2022-10-19T09:24:36.999Z,102561.88
2022-10-19T09:29:45.227Z,102562.63
2022-10-19T09:34:52.170Z,102568.69
2022-10-19T09:39:57.203Z,102559.19
2022-10-19T09:45:01.986Z,102574.81
2022-10-19T09:50:17.948Z,102572.91
2022-10-19T09:55:29.533Z,102584.06
2022-10-19T10:00:42.264Z,102594.38
2022-10-19T10:05:48.775Z,102591.41
2022-10-19T10:11:06.924Z,102607.38
2022-10-19T10:16:15.162Z,102601.91
2022-10-19T10:21:25.742Z,102603.84
2022-10-19T10:26:30.771Z,102600.81
2022-10-19T10:31:33.628Z,102601.81
2022-10-19T10:36:37.112Z,102608.22
2022-10-19T10:41:45.548Z,102615.06
2022-10-19T10:46:54.439Z,102614.72
2022-10-19T10:52:01.391Z,102605.47
2022-10-19T10:57:13.136Z,102611.47
2022-10-19T11:02:29.170Z,102609.22
2022-10-19T11:07:34.590Z,102605.88
2022-10-19T11:12:42.594Z,102613.72
2022-10-19T11:17:56.005Z,102609.81
2022-10-19T11:22:58.499Z,102611.31
2022-10-19T11:28:13.473Z,102598.53
2022-10-19T11:33:32.132Z,102597.94
2022-10-19T11:38:49.489Z,102598.13
2022-10-19T11:44:12.854Z,102599.19
2022-10-19T11:49:29.564Z,102589.09
2022-10-19T11:54:45.558Z,102577.69
2022-10-19T12:00:14.084Z,102570.34
2022-10-19T12:05:24.901Z,102565.97
2022-10-19T12:10:34.308Z,102555.38
2022-10-19T12:15:42.704Z,102550.78
2022-10-19T12:20:49.899Z,102552.63
2022-10-19T12:25:54.035Z,102550.47
2022-10-19T12:30:59.917Z,102540.88
2022-10-19T12:36:14.695Z,102538.81
2022-10-19T12:41:26.194Z,102535.06
2022-10-19T12:46:39.575Z,102531.50
2022-10-19T12:51:47.145Z,102535.69
2022-10-19T12:56:53.427Z,102529.44
2022-10-19T13:01:58.797Z,102529.34
2022-10-19T13:07:04.338Z,102525.53
2022-10-19T13:12:30.084Z,102526.16
2022-10-19T13:17:43.853Z,102529.13
2022-10-19T13:22:48.921Z,102523.59
2022-10-19T13:27:52.566Z,102526.97
2022-10-19T13:32:56.639Z,102517.41
2022-10-19T13:38:29.909Z,102524.34
2022-10-19T13:43:35.693Z,102517.06
2022-10-19T13:49:13.304Z,102507.72
2022-10-19T13:54:44.014Z,102509.41
2022-10-19T14:00:07.030Z,102508.66
2022-10-19T14:05:25.903Z,102514.94
2022-10-19T14:10:33.087Z,102512.97
2022-10-19T14:15:52.657Z,102502.13
2022-10-19T14:21:01.518Z,102487.16
2022-10-19T14:26:08.467Z,102497.59
2022-10-19T14:31:18.355Z,102503.69
2022-10-19T14:36:26.219Z,102500.22
2022-10-19T14:41:32.546Z,102503.78
2022-10-19T14:46:35.692Z,102498.91
2022-10-19T14:51:45.144Z,102499.22
2022-10-19T14:56:54.374Z,102491.47
2022-10-19T15:02:00.290Z,102492.53
2022-10-19T15:07:06.286Z,102489.13
2022-10-19T15:12:11.184Z,102486.97
2022-10-19T15:17:25.532Z,102487.25
2022-10-19T15:22:41.754Z,102483.00
2022-10-19T15:27:47.569Z,102492.78
2022-10-19T15:32:52.137Z,102487.47
2022-10-19T15:38:03.509Z,102497.81
2022-10-19T15:43:47.775Z,102491.25
2022-10-19T15:48:55.197Z,102489.44
2022-10-19T15:54:01.364Z,102495.53
2022-10-19T15:59:07.034Z,102489.78
2022-10-19T16:04:09.869Z,102500.00
2022-10-19T16:09:20.273Z,102501.81
2022-10-19T16:14:23.003Z,102512.59
2022-10-19T16:19:25.732Z,102513.03
2022-10-19T16:24:29.838Z,102509.03
2022-10-19T16:29:32.716Z,102514.41
2022-10-19T16:34:35.556Z,102515.53
2022-10-19T16:39:39.609Z,102516.75
2022-10-19T16:44:42.338Z,102520.91
2022-10-19T16:49:45.139Z,102516.06
2022-10-19T16:54:49.174Z,102521.66
2022-10-19T17:04:56.474Z,102532.63
2022-10-19T17:10:00.603Z,102543.94
2022-10-19T17:15:37.165Z,102539.13
2022-10-19T17:20:26.031Z,102541.94
2022-10-19T17:25:30.522Z,102546.97
2022-10-19T17:30:33.217Z,102547.09
2022-10-19T17:35:36.144Z,102547.50
2022-10-19T17:40:40.211Z,102549.38
2022-10-19T17:50:46.581Z,102546.56
2022-10-19T17:55:50.628Z,102534.50
2022-10-19T18:00:57.470Z,102534.03
2022-10-19T18:06:04.551Z,102547.06
2022-10-19T18:11:13.025Z,102551.38
2022-10-19T18:16:18.042Z,102555.34
2022-10-19T18:21:22.718Z,102547.50
2022-10-19T18:26:29.632Z,102558.31
2022-10-19T18:31:33.475Z,102567.94
2022-10-19T18:36:36.179Z,102553.75
2022-10-19T18:41:41.532Z,102549.47
2022-10-19T18:46:45.402Z,102556.44
2022-10-19T18:51:52.363Z,102557.38
2022-10-19T18:56:59.578Z,102564.34
2022-10-19T19:02:02.393Z,102554.63
2022-10-19T19:07:05.484Z,102552.91
2022-10-19T19:12:09.878Z,102549.88
2022-10-19T19:17:12.627Z,102550.91
2022-10-19T19:22:16.253Z,102560.59
2022-10-19T19:27:21.832Z,102553.63
2022-10-19T19:32:24.880Z,102555.31
2022-10-19T19:37:27.617Z,102551.31
2022-10-19T19:42:31.701Z,102552.56
2022-10-19T19:47:34.752Z,102550.53
2022-10-19T19:52:40.423Z,102551.72
2022-10-19T19:57:47.968Z,102538.53
2022-10-19T20:02:53.051Z,102535.09
2022-10-19T20:07:56.156Z,102523.88
2022-10-19T20:13:00.266Z,102535.41
2022-10-19T20:18:03.038Z,102529.66
2022-10-19T20:23:05.726Z,102537.97
2022-10-19T20:28:09.772Z,102538.50
2022-10-19T20:33:12.460Z,102540.81
2022-10-19T20:38:15.147Z,102539.63
2022-10-19T20:43:19.235Z,102539.03
2022-10-19T20:48:21.951Z,102539.09
2022-10-19T20:53:24.760Z,102539.91
2022-10-19T20:58:28.822Z,102539.91
2022-10-19T21:03:31.533Z,102548.66
2022-10-19T21:08:34.687Z,102545.47
2022-10-19T21:13:38.805Z,102543.78
2022-10-19T21:18:42.270Z,102544.41
2022-10-19T21:23:46.050Z,102547.03
2022-10-19T21:28:53.036Z,102539.03
2022-10-19T21:33:56.021Z,102524.00
2022-10-19T21:38:58.791Z,102521.06
2022-10-19T21:44:02.864Z,102508.81
2022-10-19T21:49:05.581Z,102501.47
2022-10-19T21:59:20.700Z,102483.56
2022-10-19T22:04:23.952Z,102489.88
2022-10-19T22:09:26.676Z,102474.97
2022-10-19T22:14:30.774Z,102472.22
2022-10-19T22:19:33.476Z,102468.69
2022-10-19T22:24:36.236Z,102470.88
2022-10-19T22:29:40.317Z,102466.72
2022-10-19T22:34:43.001Z,102465.00
2022-10-19T22:39:45.679Z,102458.88
2022-10-19T22:44:49.752Z,102462.09
2022-10-19T22:49:52.504Z,102465.31
2022-10-19T22:54:55.185Z,102469.50
2022-10-19T22:59:59.268Z,102461.97
2022-10-19T23:05:01.954Z,102458.59
2022-10-19T23:10:04.940Z,102467.97
2022-10-19T23:15:10.687Z,102470.13
2022-10-19T23:20:13.804Z,102463.06
2022-10-19T23:25:16.737Z,102461.84
2022-10-19T23:30:20.807Z,102457.53
2022-10-19T23:35:23.484Z,102458.44
2022-10-19T23:40:26.237Z,102466.09
2022-10-19T23:45:30.291Z,102464.13
2022-10-19T23:50:35.832Z,102471.16
2022-10-19T23:55:38.727Z,102469.94
